Dades meteomassalio
 
Diari Summary for Maig 21, 2018 Units:  Both    English   Metric
« Previous Day
Next Day »
Diari Semanal Mensual Anual Personalitzat
  Actual: Maxima: Minima: Mijana:
Temperatura: 11.1 °F /  -11.6 °C TemperatureC °F /  -17.8 °C 11.1 °F /  -11.6 °C 11.6 °F /  -11.3 °C
Rosada: 10.0 °F /  -12.2 °C DewpointC °F /  -17.8 °C 9.8 °F /  -12.3 °C 10.4 °F /  -12 °C
Humitat: 93 % Humidity % 91 % 91 %
Velocitat del vent: 0.0 mph /  0 km/h WindSpeedKMH mph /  0 km/h - 0 mph /  0 km/h
Racha vent: 0.0 mph /  0 km/h WindSpeedGustKMH mph /  0 km/h - -
Vent:Calm - - North
Pressio: 1014.4 in /  34347.6 hPa PressurehPa in /  0 hPa 1014.1 in /  34337.4 hPa -
Pluja: 0.3 in /  7.62 mm      
Historical Graphs
 
 
Tabular Data for Maig 21, 2018
Time Temperature Dew Point Pressure Wind Wind Speed Wind Gust Humidity Rainfall Rate (Hourly) solar Conditions
TemperatureC °F /  -17.8 °C DewpointC °F /  -17.8 °C PressurehPa in /  0 hPa Calm     Humidity % HourlyPrecipMM in /  0 mm SolarRadiationWatts/m^2 W/m2 Conditions
00:00 13.3 °F /  -10.4 °C 12.1 °F /  -11.1 °C 1015.8 in /  34395 hPa Calm     92 % 0.0 in /  0 mm 0.0 W/m2 CLR
00:05 13.3 °F /  -10.4 °C 11.9 °F /  -11.2 °C 1015.8 in /  34395 hPa Calm     91 % 0.0 in /  0 mm 0.0 W/m2 RA
00:10 13.3 °F /  -10.4 °C 11.9 °F /  -11.2 °C 1015.8 in /  34395 hPa Calm     91 % 0.0 in /  0 mm 0.0 W/m2 CLR
00:15 13.3 °F /  -10.4 °C 12.1 °F /  -11.1 °C 1015.8 in /  34395 hPa Calm     92 % 0.0 in /  0 mm 0.0 W/m2 CLR
00:20 13.3 °F /  -10.4 °C 12.1 °F /  -11.1 °C 1015.8 in /  34395 hPa Calm     92 % 0.0 in /  0 mm 0.0 W/m2 CLR
00:25 13.3 °F /  -10.4 °C 12.1 °F /  -11.1 °C 1015.8 in /  34395 hPa Calm     92 % 0.0 in /  0 mm 0.0 W/m2 CLR
00:30 13.3 °F /  -10.4 °C 12.1 °F /  -11.1 °C 1015.8 in /  34395 hPa Calm     92 % 0.0 in /  0 mm 0.0 W/m2 CLR
00:35 12.8 °F /  -10.7 °C 11.5 °F /  -11.4 °C 1015.8 in /  34395 hPa Calm     92 % 0.0 in /  0 mm 0.0 W/m2 CLR
00:40 12.8 °F /  -10.7 °C 11.5 °F /  -11.4 °C 1015.8 in /  34395 hPa Calm     92 % 0.0 in /  0 mm 0.0 W/m2 CLR
00:45 12.8 °F /  -10.7 °C 11.5 °F /  -11.4 °C 1015.8 in /  34395 hPa Calm     92 % 0.0 in /  0 mm 0.0 W/m2 CLR
00:50 12.8 °F /  -10.7 °C 11.5 °F /  -11.4 °C 1015.8 in /  34395 hPa Calm     92 % 0.0 in /  0 mm 0.0 W/m2 CLR
00:55 12.2 °F /  -11 °C 10.9 °F /  -11.7 °C 1015.8 in /  34395 hPa Calm     92 % 0.0 in /  0 mm 0.0 W/m2 CLR
01:00 12.2 °F /  -11 °C 10.9 °F /  -11.7 °C 1015.8 in /  34395 hPa Calm     92 % 0.0 in /  0 mm 0.0 W/m2 CLR
01:05 12.2 °F /  -11 °C 10.9 °F /  -11.7 °C 1015.8 in /  34395 hPa Calm     92 % 0.3 in /  7.62 mm 0.0 W/m2 RA
01:10 12.2 °F /  -11 °C 10.9 °F /  -11.7 °C 1015.8 in /  34395 hPa Calm     92 % 0.3 in /  7.62 mm 0.0 W/m2 CLR
01:15 12.8 °F /  -10.7 °C 11.5 °F /  -11.4 °C 1015.8 in /  34395 hPa Calm     92 % 0.3 in /  7.62 mm 0.0 W/m2 CLR
01:20 12.2 °F /  -11 °C 10.9 °F /  -11.7 °C 1015.8 in /  34395 hPa Calm     92 % 0.3 in /  7.62 mm 0.0 W/m2 CLR
01:25 12.2 °F /  -11 °C 10.9 °F /  -11.7 °C 1015.8 in /  34395 hPa Calm     92 % 0.3 in /  7.62 mm 0.0 W/m2 CLR
01:30 12.2 °F /  -11 °C 10.9 °F /  -11.7 °C 1015.8 in /  34395 hPa Calm     92 % 0.3 in /  7.62 mm 0.0 W/m2 CLR
01:35 12.2 °F /  -11 °C 10.9 °F /  -11.7 °C 1015.5 in /  34384.8 hPa Calm     92 % 0.3 in /  7.62 mm 0.0 W/m2 CLR
01:40 12.2 °F /  -11 °C 10.9 °F /  -11.7 °C 1015.5 in /  34384.8 hPa Calm     92 % 0.3 in /  7.62 mm 0.0 W/m2 CLR
01:45 11.7 °F /  -11.3 °C 10.4 °F /  -12 °C 1015.5 in /  34384.8 hPa Calm     92 % 0.3 in /  7.62 mm 0.0 W/m2 CLR
01:50 11.7 °F /  -11.3 °C 10.4 °F /  -12 °C 1015.5 in /  34384.8 hPa Calm     92 % 0.3 in /  7.62 mm 0.0 W/m2 CLR
01:55 11.7 °F /  -11.3 °C 10.4 °F /  -12 °C 1015.5 in /  34384.8 hPa Calm     92 % 0.3 in /  7.62 mm 0.0 W/m2 CLR
02:00 11.7 °F /  -11.3 °C 10.4 °F /  -12 °C 1015.5 in /  34384.8 hPa Calm     92 % 0.3 in /  7.62 mm 0.0 W/m2 CLR
02:05 11.7 °F /  -11.3 °C 10.4 °F /  -12 °C 1015.5 in /  34384.8 hPa Calm     92 % 0.0 in /  0 mm 0.0 W/m2 CLR
02:10 11.7 °F /  -11.3 °C 10.4 °F /  -12 °C 1015.5 in /  34384.8 hPa Calm     92 % 0.0 in /  0 mm 0.0 W/m2 CLR
02:15 11.7 °F /  -11.3 °C 10.4 °F /  -12 °C 1015.1 in /  34371.3 hPa Calm     92 % 0.0 in /  0 mm 0.0 W/m2 CLR
02:20 11.7 °F /  -11.3 °C 10.4 °F /  -12 °C 1015.1 in /  34371.3 hPa Calm     92 % 0.0 in /  0 mm 0.0 W/m2 CLR
02:25 11.7 °F /  -11.3 °C 10.4 °F /  -12 °C 1015.1 in /  34371.3 hPa Calm     92 % 0.0 in /  0 mm 0.0 W/m2 CLR
02:30 11.7 °F /  -11.3 °C 10.4 °F /  -12 °C 1015.1 in /  34371.3 hPa Calm     92 % 0.0 in /  0 mm 0.0 W/m2 CLR
02:35 11.7 °F /  -11.3 °C 10.4 °F /  -12 °C 1015.1 in /  34371.3 hPa Calm     92 % 0.0 in /  0 mm 0.0 W/m2 CLR
02:40 11.7 °F /  -11.3 °C 10.4 °F /  -12 °C 1015.1 in /  34371.3 hPa Calm     92 % 0.0 in /  0 mm 0.0 W/m2 CLR
02:45 11.7 °F /  -11.3 °C 10.4 °F /  -12 °C 1015.1 in /  34371.3 hPa Calm     92 % 0.0 in /  0 mm 0.0 W/m2 CLR
02:50 11.7 °F /  -11.3 °C 10.4 °F /  -12 °C 1014.8 in /  34361.1 hPa Calm     92 % 0.0 in /  0 mm 0.0 W/m2 CLR
02:55 11.7 °F /  -11.3 °C 10.4 °F /  -12 °C 1014.8 in /  34361.1 hPa Calm     92 % 0.0 in /  0 mm 0.0 W/m2 CLR
03:00 11.7 °F /  -11.3 °C 10.4 °F /  -12 °C 1014.8 in /  34361.1 hPa Calm     92 % 0.0 in /  0 mm 0.0 W/m2 CLR
03:05 11.7 °F /  -11.3 °C 10.4 °F /  -12 °C 1014.8 in /  34361.1 hPa Calm     92 % 0.0 in /  0 mm 0.0 W/m2 CLR
03:10 11.1 °F /  -11.6 °C 9.8 °F /  -12.3 °C 1014.8 in /  34361.1 hPa Calm     92 % 0.0 in /  0 mm 0.0 W/m2 CLR
03:15 11.1 °F /  -11.6 °C 10.0 °F /  -12.2 °C 1014.8 in /  34361.1 hPa Calm     93 % 0.0 in /  0 mm 0.0 W/m2 CLR
03:20 11.1 °F /  -11.6 °C 9.8 °F /  -12.3 °C 1014.8 in /  34361.1 hPa Calm     92 % 0.0 in /  0 mm 0.0 W/m2 CLR
03:25 11.1 °F /  -11.6 °C 9.8 °F /  -12.3 °C 1014.8 in /  34361.1 hPa Calm     92 % 0.0 in /  0 mm 0.0 W/m2 CLR
03:30 11.1 °F /  -11.6 °C 9.8 °F /  -12.3 °C 1014.8 in /  34361.1 hPa Calm     92 % 0.0 in /  0 mm 0.0 W/m2 CLR
03:35 11.1 °F /  -11.6 °C 10.0 °F /  -12.2 °C 1014.8 in /  34361.1 hPa Calm     93 % 0.0 in /  0 mm 0.0 W/m2 CLR
03:40 11.1 °F /  -11.6 °C 10.0 °F /  -12.2 °C 1014.8 in /  34361.1 hPa Calm     93 % 0.0 in /  0 mm 0.0 W/m2 CLR
03:45 11.1 °F /  -11.6 °C 10.0 °F /  -12.2 °C 1014.8 in /  34361.1 hPa Calm     93 % 0.0 in /  0 mm 0.0 W/m2 CLR
03:50 11.1 °F /  -11.6 °C 10.0 °F /  -12.2 °C 1014.8 in /  34361.1 hPa Calm     93 % 0.0 in /  0 mm 0.0 W/m2 CLR
03:55 11.1 °F /  -11.6 °C 9.8 °F /  -12.3 °C 1014.8 in /  34361.1 hPa Calm     92 % 0.0 in /  0 mm 0.0 W/m2 CLR
04:00 11.7 °F /  -11.3 °C 10.4 °F /  -12 °C 1014.8 in /  34361.1 hPa Calm     92 % 0.0 in /  0 mm 0.0 W/m2 CLR
04:05 11.1 °F /  -11.6 °C 10.0 °F /  -12.2 °C 1014.8 in /  34361.1 hPa Calm     93 % 0.0 in /  0 mm 0.0 W/m2 CLR
04:10 11.1 °F /  -11.6 °C 10.0 °F /  -12.2 °C 1014.4 in /  34347.6 hPa Calm     93 % 0.0 in /  0 mm 0.0 W/m2 CLR
04:15 11.1 °F /  -11.6 °C 10.0 °F /  -12.2 °C 1014.4 in /  34347.6 hPa Calm     93 % 0.0 in /  0 mm 0.0 W/m2 CLR
04:20 11.1 °F /  -11.6 °C 10.0 °F /  -12.2 °C 1014.4 in /  34347.6 hPa Calm     93 % 0.0 in /  0 mm 0.0 W/m2 CLR
04:25 11.1 °F /  -11.6 °C 10.0 °F /  -12.2 °C 1014.4 in /  34347.6 hPa Calm     93 % 0.0 in /  0 mm 0.0 W/m2 CLR
04:30 11.1 °F /  -11.6 °C 10.0 °F /  -12.2 °C 1014.4 in /  34347.6 hPa Calm     93 % 0.0 in /  0 mm 0.0 W/m2 CLR
04:35 11.1 °F /  -11.6 °C 10.0 °F /  -12.2 °C 1014.4 in /  34347.6 hPa Calm     93 % 0.0 in /  0 mm 0.0 W/m2 CLR
04:40 11.1 °F /  -11.6 °C 10.0 °F /  -12.2 °C 1014.4 in /  34347.6 hPa Calm     93 % 0.0 in /  0 mm 0.0 W/m2 CLR
04:45 11.1 °F /  -11.6 °C 10.0 °F /  -12.2 °C 1014.4 in /  34347.6 hPa Calm     93 % 0.0 in /  0 mm 0.0 W/m2 CLR
04:50 11.1 °F /  -11.6 °C 10.0 °F /  -12.2 °C 1014.4 in /  34347.6 hPa Calm     93 % 0.0 in /  0 mm 0.0 W/m2 CLR
04:55 11.1 °F /  -11.6 °C 10.0 °F /  -12.2 °C 1014.4 in /  34347.6 hPa Calm     93 % 0.0 in /  0 mm 0.0 W/m2 CLR
04:57 11.1 °F /  -11.6 °C 10.0 °F /  -12.2 °C 1014.1 in /  34337.4 hPa Calm     93 % 0.0 in /  0 mm 0.0 W/m2 CLR
05:02 11.1 °F /  -11.6 °C 10.0 °F /  -12.2 °C 1014.1 in /  34337.4 hPa Calm     93 % 0.0 in /  0 mm 0.0 W/m2 CLR
05:07 11.1 °F /  -11.6 °C 10.0 °F /  -12.2 °C 1014.4 in /  34347.6 hPa Calm     93 % 0.0 in /  0 mm 0.0 W/m2 CLR
05:12 11.1 °F /  -11.6 °C 10.0 °F /  -12.2 °C 1014.1 in /  34337.4 hPa Calm     93 % 0.0 in /  0 mm 0.0 W/m2 CLR
05:17 11.1 °F /  -11.6 °C 10.0 °F /  -12.2 °C 1014.1 in /  34337.4 hPa Calm     93 % 0.0 in /  0 mm 0.0 W/m2 CLR
05:22 11.1 °F /  -11.6 °C 10.0 °F /  -12.2 °C 1014.4 in /  34347.6 hPa Calm     93 % 0.0 in /  0 mm 0.0 W/m2 CLR
Lo Temps de Massalio
Compliments of Weather Underground - 512 kb